sensor_id;sensor_type;location;lat;lon;timestamp;pressure;altitude;pressure_sealevel;temperature;humidity
33191;BME280;19554;42.652;23.364;2023-02-14T00:00:16;95965.69;;;2.43;61.54
33191;BME280;19554;42.652;23.364;2023-02-14T00:02:42;95999.13;;;2.63;61.58
33191;BME280;19554;42.652;23.364;2023-02-14T00:05:07;96033.78;;;2.86;61.27
33191;BME280;19554;42.652;23.364;2023-02-14T00:07:33;96035.84;;;2.84;61.40
33191;BME280;19554;42.652;23.364;2023-02-14T00:09:58;96010.06;;;2.73;61.60
33191;BME280;19554;42.652;23.364;2023-02-14T00:12:23;96007.25;;;2.74;61.50
33191;BME280;19554;42.652;23.364;2023-02-14T00:14:49;96026.09;;;2.84;61.46
33191;BME280;19554;42.652;23.364;2023-02-14T00:17:33;96032.19;;;2.85;61.55
33191;BME280;19554;42.652;23.364;2023-02-14T00:19:58;96022.84;;;2.76;61.29
33191;BME280;19554;42.652;23.364;2023-02-14T00:22:24;96039.88;;;2.80;61.77
33191;BME280;19554;42.652;23.364;2023-02-14T00:24:49;95956.13;;;2.29;61.69
33191;BME280;19554;42.652;23.364;2023-02-14T00:27:14;96025.69;;;2.81;61.75
33191;BME280;19554;42.652;23.364;2023-02-14T00:29:40;96019.63;;;2.74;61.76
33191;BME280;19554;42.652;23.364;2023-02-14T00:32:05;96029.75;;;2.64;62.37
33191;BME280;19554;42.652;23.364;2023-02-14T00:34:31;96022.25;;;2.60;62.49
33191;BME280;19554;42.652;23.364;2023-02-14T00:36:57;96014.34;;;2.60;62.39
33191;BME280;19554;42.652;23.364;2023-02-14T00:39:23;96009.47;;;2.57;62.45
33191;BME280;19554;42.652;23.364;2023-02-14T00:41:48;96025.69;;;2.68;62.66
33191;BME280;19554;42.652;23.364;2023-02-14T00:44:13;96026.91;;;2.72;62.59
33191;BME280;19554;42.652;23.364;2023-02-14T00:46:39;96022.84;;;2.76;62.53
33191;BME280;19554;42.652;23.364;2023-02-14T00:49:05;96025.69;;;2.81;62.33
33191;BME280;19554;42.652;23.364;2023-02-14T00:51:31;95905.69;;;2.05;62.42
33191;BME280;19554;42.652;23.364;2023-02-14T00:53:56;96013.91;;;2.77;62.74
33191;BME280;19554;42.652;23.364;2023-02-14T00:56:22;96001.34;;;2.72;62.64
33191;BME280;19554;42.652;23.364;2023-02-14T00:58:47;95999.31;;;2.74;62.43
33191;BME280;19554;42.652;23.364;2023-02-14T01:01:13;95996.88;;;2.73;62.62
33191;BME280;19554;42.652;23.364;2023-02-14T01:03:40;96010.69;;;2.75;62.86
33191;BME280;19554;42.652;23.364;2023-02-14T01:06:06;95934.47;;;2.40;62.67
33191;BME280;19554;42.652;23.364;2023-02-14T01:08:32;95995.66;;;2.62;62.63
33191;BME280;19554;42.652;23.364;2023-02-14T01:10:57;95998.72;;;2.59;62.81
33191;BME280;19554;42.652;23.364;2023-02-14T01:13:30;95997.50;;;2.48;63.01
33191;BME280;19554;42.652;23.364;2023-02-14T01:15:55;95988.38;;;2.44;63.08
33191;BME280;19554;42.652;23.364;2023-02-14T01:18:21;95993.84;;;2.49;63.59
33191;BME280;19554;42.652;23.364;2023-02-14T01:20:46;95978.25;;;2.41;63.00
33191;BME280;19554;42.652;23.364;2023-02-14T01:23:11;95994.69;;;2.56;62.96
33191;BME280;19554;42.652;23.364;2023-02-14T01:25:37;95975.00;;;2.52;62.93
33191;BME280;19554;42.652;23.364;2023-02-14T01:28:04;95985.13;;;2.69;62.86
33191;BME280;19554;42.652;23.364;2023-02-14T01:30:29;95984.31;;;2.68;62.45
33191;BME280;19554;42.652;23.364;2023-02-14T01:32:55;95985.13;;;2.62;62.96
33191;BME280;19554;42.652;23.364;2023-02-14T01:35:20;95978.66;;;2.65;62.49
33191;BME280;19554;42.652;23.364;2023-02-14T01:37:46;95976.59;;;2.67;62.56
33191;BME280;19554;42.652;23.364;2023-02-14T01:40:11;95965.88;;;2.61;62.52
33191;BME280;19554;42.652;23.364;2023-02-14T01:42:37;95947.44;;;2.48;62.57
33191;BME280;19554;42.652;23.364;2023-02-14T01:45:16;95948.03;;;2.57;62.59
33191;BME280;19554;42.652;23.364;2023-02-14T01:47:43;95955.50;;;2.67;62.68
33191;BME280;19554;42.652;23.364;2023-02-14T01:50:33;95872.88;;;2.14;62.29
33191;BME280;19554;42.652;23.364;2023-02-14T01:53:10;95921.88;;;2.49;62.59
33191;BME280;19554;42.652;23.364;2023-02-14T01:55:45;95950.69;;;2.64;62.38
33191;BME280;19554;42.652;23.364;2023-02-14T01:58:22;95943.34;;;2.66;62.17
33191;BME280;19554;42.652;23.364;2023-02-14T02:00:49;95870.84;;;2.10;62.34
33191;BME280;19554;42.652;23.364;2023-02-14T02:03:31;95940.53;;;2.47;62.55
33191;BME280;19554;42.652;23.364;2023-02-14T02:06:04;95861.13;;;1.97;62.36
33191;BME280;19554;42.652;23.364;2023-02-14T02:08:36;95904.88;;;2.25;62.27
33191;BME280;19554;42.652;23.364;2023-02-14T02:11:04;95946.63;;;2.54;62.70
33191;BME280;19554;42.652;23.364;2023-02-14T02:13:29;95948.84;;;2.51;62.67
33191;BME280;19554;42.652;23.364;2023-02-14T02:24:11;95919.47;;;2.34;62.47
33191;BME280;19554;42.652;23.364;2023-02-14T02:27:24;95942.56;;;2.52;62.67
33191;BME280;19554;42.652;23.364;2023-02-14T02:35:15;95922.69;;;2.49;62.68
33191;BME280;19554;42.652;23.364;2023-02-14T02:41:08;95916.63;;;2.42;62.83
33191;BME280;19554;42.652;23.364;2023-02-14T02:46:21;95904.47;;;2.48;62.77
33191;BME280;19554;42.652;23.364;2023-02-14T02:51:51;95904.25;;;2.49;62.35
33191;BME280;19554;42.652;23.364;2023-02-14T02:54:40;95898.00;;;2.30;62.95
33191;BME280;19554;42.652;23.364;2023-02-14T02:57:14;95858.50;;;2.10;62.93
33191;BME280;19554;42.652;23.364;2023-02-14T02:59:41;95915.22;;;2.46;62.75
33191;BME280;19554;42.652;23.364;2023-02-14T03:02:18;95909.09;;;2.52;62.58
33191;BME280;19554;42.652;23.364;2023-02-14T03:04:54;95925.53;;;2.54;62.46
33191;BME280;19554;42.652;23.364;2023-02-14T03:07:37;95913.38;;;2.53;62.50
33191;BME280;19554;42.652;23.364;2023-02-14T03:10:23;95917.41;;;2.49;62.32
33191;BME280;19554;42.652;23.364;2023-02-14T03:23:28;95908.13;;;2.53;62.87
33191;BME280;19554;42.652;23.364;2023-02-14T03:26:15;95909.91;;;2.59;62.53
33191;BME280;19554;42.652;23.364;2023-02-14T03:28:46;95893.50;;;2.64;62.37
33191;BME280;19554;42.652;23.364;2023-02-14T03:36:58;95891.03;;;2.63;61.99
33191;BME280;19554;42.652;23.364;2023-02-14T03:39:22;95889.84;;;2.58;62.42
33191;BME280;19554;42.652;23.364;2023-02-14T03:41:56;95888.63;;;2.68;62.10
33191;BME280;19554;42.652;23.364;2023-02-14T03:44:27;95888.00;;;2.66;61.67
33191;BME280;19554;42.652;23.364;2023-02-14T03:46:58;95893.09;;;2.60;61.99
33191;BME280;19554;42.652;23.364;2023-02-14T03:49:25;95893.09;;;2.60;61.72
33191;BME280;19554;42.652;23.364;2023-02-14T03:51:55;95879.31;;;2.45;62.35
33191;BME280;19554;42.652;23.364;2023-02-14T03:54:22;95865.56;;;2.30;62.33
33191;BME280;19554;42.652;23.364;2023-02-14T03:56:59;95876.91;;;2.37;62.47
33191;BME280;19554;42.652;23.364;2023-02-14T03:59:28;95863.13;;;2.35;62.42
33191;BME280;19554;42.652;23.364;2023-02-14T04:04:20;95857.84;;;2.35;62.63
33191;BME280;19554;42.652;23.364;2023-02-14T04:06:47;95867.97;;;2.38;62.53
33191;BME280;19554;42.652;23.364;2023-02-14T04:09:12;95856.63;;;2.37;62.37
33191;BME280;19554;42.652;23.364;2023-02-14T04:11:38;95780.13;;;1.86;62.37
33191;BME280;19554;42.652;23.364;2023-02-14T04:14:04;95859.03;;;2.46;62.24
33191;BME280;19554;42.652;23.364;2023-02-14T04:16:30;95855.84;;;2.37;62.43
33191;BME280;19554;42.652;23.364;2023-02-14T04:18:55;95862.72;;;2.31;62.27
33191;BME280;19554;42.652;23.364;2023-02-14T04:21:39;95866.38;;;2.24;62.67
33191;BME280;19554;42.652;23.364;2023-02-14T04:24:04;95870.63;;;2.18;62.84
33191;BME280;19554;42.652;23.364;2023-02-14T04:26:30;95862.31;;;2.14;62.92
33191;BME280;19554;42.652;23.364;2023-02-14T04:28:55;95862.72;;;2.11;63.09
33191;BME280;19554;42.652;23.364;2023-02-14T04:31:20;95856.47;;;2.06;63.05
33191;BME280;19554;42.652;23.364;2023-02-14T04:33:46;95818.00;;;1.85;63.15
33191;BME280;19554;42.652;23.364;2023-02-14T04:36:12;95860.31;;;2.03;63.28
33191;BME280;19554;42.652;23.364;2023-02-14T04:38:38;95855.03;;;2.03;63.02
33191;BME280;19554;42.652;23.364;2023-02-14T04:41:03;95854.44;;;2.01;63.10
33191;BME280;19554;42.652;23.364;2023-02-14T04:43:29;95848.97;;;2.09;62.97
33191;BME280;19554;42.652;23.364;2023-02-14T04:45:54;95839.66;;;2.13;62.68
33191;BME280;19554;42.652;23.364;2023-02-14T04:48:20;95833.59;;;2.00;62.62
33191;BME280;19554;42.652;23.364;2023-02-14T04:50:53;95745.72;;;1.54;62.67
33191;BME280;19554;42.652;23.364;2023-02-14T04:53:20;95835.81;;;2.09;62.79
33191;BME280;19554;42.652;23.364;2023-02-14T04:55:48;95835.59;;;2.18;62.71
33191;BME280;19554;42.652;23.364;2023-02-14T04:58:13;95838.44;;;2.23;62.45
33191;BME280;19554;42.652;23.364;2023-02-14T05:00:38;95829.91;;;2.21;62.10
33191;BME280;19554;42.652;23.364;2023-02-14T05:03:04;95835.56;;;2.24;62.01
33191;BME280;19554;42.652;23.364;2023-02-14T05:05:29;95768.00;;;1.72;62.15
33191;BME280;19554;42.652;23.364;2023-02-14T05:07:54;95850.38;;;2.19;62.36
33191;BME280;19554;42.652;23.364;2023-02-14T05:10:20;95839.25;;;2.23;61.87
33191;BME280;19554;42.652;23.364;2023-02-14T05:12:45;95842.84;;;2.29;61.88
33191;BME280;19554;42.652;23.364;2023-02-14T05:15:10;95825.44;;;2.21;61.99
33191;BME280;19554;42.652;23.364;2023-02-14T05:17:36;95826.88;;;2.24;61.95
33191;BME280;19554;42.652;23.364;2023-02-14T05:20:03;95838.44;;;2.29;61.91
33191;BME280;19554;42.652;23.364;2023-02-14T05:22:30;95842.66;;;2.30;61.81
33191;BME280;19554;42.652;23.364;2023-02-14T05:24:55;95834.78;;;2.30;61.47
33191;BME280;19554;42.652;23.364;2023-02-14T05:27:20;95832.31;;;2.29;61.94
33191;BME280;19554;42.652;23.364;2023-02-14T05:29:46;95826.44;;;2.33;61.76
33191;BME280;19554;42.652;23.364;2023-02-14T05:32:11;95835.56;;;2.31;61.41
33191;BME280;19554;42.652;23.364;2023-02-14T05:34:36;95842.44;;;2.32;61.46
33191;BME280;19554;42.652;23.364;2023-02-14T05:37:02;95819.78;;;2.11;61.86
33191;BME280;19554;42.652;23.364;2023-02-14T05:39:27;95836.78;;;2.28;61.76
33191;BME280;19554;42.652;23.364;2023-02-14T05:41:53;95829.50;;;2.24;61.81
33191;BME280;19554;42.652;23.364;2023-02-14T05:44:19;95829.09;;;2.27;61.86
33191;BME280;19554;42.652;23.364;2023-02-14T05:46:44;95834.34;;;2.33;61.76
33191;BME280;19554;42.652;23.364;2023-02-14T05:49:09;95832.31;;;2.35;61.71
33191;BME280;19554;42.652;23.364;2023-02-14T05:51:35;95821.78;;;2.29;61.89
33191;BME280;19554;42.652;23.364;2023-02-14T05:54:00;95831.50;;;2.28;62.06
33191;BME280;19554;42.652;23.364;2023-02-14T05:56:26;95818.97;;;2.30;61.70
33191;BME280;19554;42.652;23.364;2023-02-14T05:58:51;95757.84;;;1.95;61.75
33191;BME280;19554;42.652;23.364;2023-02-14T06:01:17;95829.50;;;2.37;61.58
33191;BME280;19554;42.652;23.364;2023-02-14T06:03:42;95825.03;;;2.37;61.85
33191;BME280;19554;42.652;23.364;2023-02-14T06:06:08;95828.69;;;2.36;62.07
33191;BME280;19554;42.652;23.364;2023-02-14T06:08:33;95831.47;;;2.48;61.81
33191;BME280;19554;42.652;23.364;2023-02-14T06:10:58;95820.91;;;2.61;61.67
33191;BME280;19554;42.652;23.364;2023-02-14T06:13:24;95836.03;;;2.86;60.68
33191;BME280;19554;42.652;23.364;2023-02-14T06:15:49;95837.44;;;2.95;59.88
33191;BME280;19554;42.652;23.364;2023-02-14T06:18:15;95838.56;;;3.13;59.74
33191;BME280;19554;42.652;23.364;2023-02-14T06:20:40;95834.63;;;3.28;59.22
33191;BME280;19554;42.652;23.364;2023-02-14T06:23:05;95838.78;;;3.49;58.86
33191;BME280;19554;42.652;23.364;2023-02-14T06:25:31;95801.88;;;3.43;58.18
33191;BME280;19554;42.652;23.364;2023-02-14T06:27:57;95838.16;;;3.79;57.65
33191;BME280;19554;42.652;23.364;2023-02-14T06:30:23;95836.72;;;3.83;57.44
33191;BME280;19554;42.652;23.364;2023-02-14T06:32:48;95778.28;;;3.48;57.26
33191;BME280;19554;42.652;23.364;2023-02-14T06:35:14;95824.38;;;3.77;57.02
33191;BME280;19554;42.652;23.364;2023-02-14T06:37:40;95837.34;;;3.78;57.24
33191;BME280;19554;42.652;23.364;2023-02-14T06:40:08;95778.31;;;3.41;57.38
33191;BME280;19554;42.652;23.364;2023-02-14T06:42:34;95846.69;;;3.81;57.56
33191;BME280;19554;42.652;23.364;2023-02-14T06:44:59;95828.47;;;3.73;57.77
33191;BME280;19554;42.652;23.364;2023-02-14T06:47:26;95838.31;;;3.59;58.20
33191;BME280;19554;42.652;23.364;2023-02-14T06:49:51;95832.97;;;3.66;57.95
33191;BME280;19554;42.652;23.364;2023-02-14T06:52:17;95837.81;;;3.69;58.47
33191;BME280;19554;42.652;23.364;2023-02-14T06:54:42;95815.44;;;3.78;57.84
33191;BME280;19554;42.652;23.364;2023-02-14T06:57:08;95831.16;;;3.91;57.58
33191;BME280;19554;42.652;23.364;2023-02-14T06:59:33;95827.50;;;3.92;57.42
33191;BME280;19554;42.652;23.364;2023-02-14T07:01:58;95827.66;;;3.97;57.35
33191;BME280;19554;42.652;23.364;2023-02-14T07:04:24;95820.56;;;3.98;57.35
33191;BME280;19554;42.652;23.364;2023-02-14T07:06:49;95818.25;;;3.83;57.60
33191;BME280;19554;42.652;23.364;2023-02-14T07:09:15;95816.69;;;3.69;58.10
33191;BME280;19554;42.652;23.364;2023-02-14T07:11:42;95801.63;;;3.76;58.52
33191;BME280;19554;42.652;23.364;2023-02-14T07:14:07;95807.34;;;3.73;58.57
33191;BME280;19554;42.652;23.364;2023-02-14T07:16:33;95815.69;;;3.70;58.90
33191;BME280;19554;42.652;23.364;2023-02-14T07:19:06;95815.09;;;3.68;59.21
33191;BME280;19554;42.652;23.364;2023-02-14T07:21:32;95809.06;;;3.61;59.51
33191;BME280;19554;42.652;23.364;2023-02-14T07:23:57;95817.13;;;3.66;59.82
33191;BME280;19554;42.652;23.364;2023-02-14T07:26:22;95804.28;;;3.44;60.76
33191;BME280;19554;42.652;23.364;2023-02-14T07:28:48;95809.13;;;3.47;61.11
33191;BME280;19554;42.652;23.364;2023-02-14T07:31:15;95816.84;;;3.49;61.13
33191;BME280;19554;42.652;23.364;2023-02-14T07:33:41;95825.81;;;3.41;61.81
33191;BME280;19554;42.652;23.364;2023-02-14T07:36:07;95834.41;;;3.30;62.37
33191;BME280;19554;42.652;23.364;2023-02-14T07:38:33;95770.94;;;2.80;63.23
33191;BME280;19554;42.652;23.364;2023-02-14T07:40:59;95814.31;;;2.91;64.30
33191;BME280;19554;42.652;23.364;2023-02-14T07:43:25;95835.56;;;3.02;64.71
33191;BME280;19554;42.652;23.364;2023-02-14T07:45:50;95824.81;;;2.97;65.06
33191;BME280;19554;42.652;23.364;2023-02-14T07:48:15;95830.19;;;2.84;65.73
33191;BME280;19554;42.652;23.364;2023-02-14T07:50:41;95836.66;;;2.81;66.52
33191;BME280;19554;42.652;23.364;2023-02-14T07:53:06;95843.16;;;2.79;67.06
33191;BME280;19554;42.652;23.364;2023-02-14T07:55:33;95839.31;;;2.75;67.08
33191;BME280;19554;42.652;23.364;2023-02-14T07:57:58;95817.03;;;2.71;66.99
33191;BME280;19554;42.652;23.364;2023-02-14T08:00:24;95854.91;;;2.83;67.15
33191;BME280;19554;42.652;23.364;2023-02-14T08:02:50;95838.13;;;2.71;67.63
33191;BME280;19554;42.652;23.364;2023-02-14T08:05:15;95841.56;;;2.71;67.52
33191;BME280;19554;42.652;23.364;2023-02-14T08:07:40;95859.19;;;2.84;67.84
33191;BME280;19554;42.652;23.364;2023-02-14T08:10:07;95861.81;;;2.84;68.10
33191;BME280;19554;42.652;23.364;2023-02-14T08:12:33;95860.97;;;2.90;67.71
33191;BME280;19554;42.652;23.364;2023-02-14T08:15:16;95864.66;;;2.76;68.15
33191;BME280;19554;42.652;23.364;2023-02-14T08:18:00;95854.72;;;2.78;68.71
33191;BME280;19554;42.652;23.364;2023-02-14T08:20:26;95875.19;;;2.76;68.52
33191;BME280;19554;42.652;23.364;2023-02-14T08:22:51;95853.94;;;2.71;68.75
33191;BME280;19554;42.652;23.364;2023-02-14T08:25:16;95862.84;;;2.63;68.56
33191;BME280;19554;42.652;23.364;2023-02-14T08:27:42;95796.88;;;2.25;68.65
33191;BME280;19554;42.652;23.364;2023-02-14T08:30:07;95855.34;;;2.67;68.33
33191;BME280;19554;42.652;23.364;2023-02-14T08:32:33;95864.47;;;2.77;68.20
33191;BME280;19554;42.652;23.364;2023-02-14T08:34:58;95867.25;;;2.89;68.18
33191;BME280;19554;42.652;23.364;2023-02-14T08:37:24;95861.34;;;2.94;67.75
33191;BME280;19554;42.652;23.364;2023-02-14T08:39:49;95852.41;;;3.01;67.81
33191;BME280;19554;42.652;23.364;2023-02-14T08:42:14;95854.41;;;3.06;67.11
33191;BME280;19554;42.652;23.364;2023-02-14T08:44:40;95855.63;;;3.03;67.14
33191;BME280;19554;42.652;23.364;2023-02-14T08:47:05;95881.97;;;3.17;67.41
33191;BME280;19554;42.652;23.364;2023-02-14T08:49:30;95872.19;;;3.24;66.81
33191;BME280;19554;42.652;23.364;2023-02-14T08:51:56;95868.59;;;3.18;67.36
33191;BME280;19554;42.652;23.364;2023-02-14T08:54:21;95879.34;;;3.10;67.71
33191;BME280;19554;42.652;23.364;2023-02-14T08:56:46;95869.44;;;3.05;67.65
33191;BME280;19554;42.652;23.364;2023-02-14T08:59:12;95869.91;;;2.89;68.12
33191;BME280;19554;42.652;23.364;2023-02-14T09:01:38;95869.06;;;2.95;68.60
33191;BME280;19554;42.652;23.364;2023-02-14T09:04:03;95875.94;;;3.03;68.70
33191;BME280;19554;42.652;23.364;2023-02-14T09:06:29;95786.91;;;2.47;68.71
33191;BME280;19554;42.652;23.364;2023-02-14T09:08:54;95870.28;;;2.93;69.00
33191;BME280;19554;42.652;23.364;2023-02-14T09:11:22;95843.16;;;2.79;69.17
33191;BME280;19554;42.652;23.364;2023-02-14T09:13:49;95874.75;;;2.92;69.61
33191;BME280;19554;42.652;23.364;2023-02-14T09:16:16;95873.56;;;2.88;69.48
33191;BME280;19554;42.652;23.364;2023-02-14T09:18:42;95855.69;;;2.83;69.13
33191;BME280;19554;42.652;23.364;2023-02-14T09:21:10;95854.50;;;2.86;69.27
33191;BME280;19554;42.652;23.364;2023-02-14T09:23:36;95828.00;;;2.68;69.18
33191;BME280;19554;42.652;23.364;2023-02-14T09:26:03;95829.81;;;2.74;68.90
33191;BME280;19554;42.652;23.364;2023-02-14T09:28:29;95823.31;;;2.70;69.09
33191;BME280;19554;42.652;23.364;2023-02-14T09:30:55;95846.56;;;2.86;68.95
33191;BME280;19554;42.652;23.364;2023-02-14T09:33:21;95849.16;;;2.99;68.61
33191;BME280;19554;42.652;23.364;2023-02-14T09:35:46;95859.72;;;2.99;68.76
33191;BME280;19554;42.652;23.364;2023-02-14T09:38:12;95851.13;;;3.11;69.97
33191;BME280;19554;42.652;23.364;2023-02-14T09:40:44;95848.50;;;3.11;68.15
33191;BME280;19554;42.652;23.364;2023-02-14T09:43:32;95840.59;;;3.11;67.83
33191;BME280;19554;42.652;23.364;2023-02-14T09:46:00;95817.09;;;3.02;67.95
33191;BME280;19554;42.652;23.364;2023-02-14T09:48:38;95834.50;;;3.10;67.96
33191;BME280;19554;42.652;23.364;2023-02-14T09:51:18;95837.28;;;3.28;67.69
33191;BME280;19554;42.652;23.364;2023-02-14T09:53:55;95830.81;;;3.18;67.14
33191;BME280;19554;42.652;23.364;2023-02-14T09:56:42;95822.59;;;3.01;67.07
33191;BME280;19554;42.652;23.364;2023-02-14T09:59:17;95841.63;;;3.09;67.44
33191;BME280;19554;42.652;23.364;2023-02-14T10:01:51;95828.88;;;3.00;67.71
33191;BME280;19554;42.652;23.364;2023-02-14T10:07:09;95798.22;;;3.05;67.20
33191;BME280;19554;42.652;23.364;2023-02-14T10:12:25;95828.41;;;3.16;67.29
33191;BME280;19554;42.652;23.364;2023-02-14T10:14:54;95749.88;;;2.73;66.69
33191;BME280;19554;42.652;23.364;2023-02-14T10:19:57;95831.31;;;3.01;67.06
33191;BME280;19554;42.652;23.364;2023-02-14T10:22:34;95807.81;;;2.93;67.42
33191;BME280;19554;42.652;23.364;2023-02-14T10:25:12;95819.59;;;2.91;67.56
33191;BME280;19554;42.652;23.364;2023-02-14T10:27:44;95816.78;;;2.85;67.84
33191;BME280;19554;42.652;23.364;2023-02-14T10:30:19;95812.69;;;2.90;67.64
33191;BME280;19554;42.652;23.364;2023-02-14T10:32:54;95820.00;;;2.94;67.82
33191;BME280;19554;42.652;23.364;2023-02-14T10:35:38;95817.34;;;2.94;67.29
33191;BME280;19554;42.652;23.364;2023-02-14T10:38:28;95803.91;;;3.02;67.17
33191;BME280;19554;42.652;23.364;2023-02-14T10:54:41;95802.94;;;2.90;66.68
33191;BME280;19554;42.652;23.364;2023-02-14T10:57:25;95791.22;;;2.86;67.01
33191;BME280;19554;42.652;23.364;2023-02-14T11:00:03;95803.00;;;2.77;67.46
33191;BME280;19554;42.652;23.364;2023-02-14T11:02:34;95801.38;;;2.82;67.43
33191;BME280;19554;42.652;23.364;2023-02-14T11:05:02;95785.16;;;2.79;67.64
33191;BME280;19554;42.652;23.364;2023-02-14T11:07:28;95756.88;;;2.54;67.46
33191;BME280;19554;42.652;23.364;2023-02-14T11:09:55;95786.75;;;2.80;67.57
33191;BME280;19554;42.652;23.364;2023-02-14T11:18:28;95794.78;;;3.05;65.89
33191;BME280;19554;42.652;23.364;2023-02-14T11:23:44;95789.13;;;3.01;66.05
33191;BME280;19554;42.652;23.364;2023-02-14T11:26:19;95793.97;;;3.04;65.48
33191;BME280;19554;42.652;23.364;2023-02-14T11:28:58;95790.31;;;3.05;65.29
33191;BME280;19554;42.652;23.364;2023-02-14T11:31:34;95783.84;;;3.01;65.35
33191;BME280;19554;42.652;23.364;2023-02-14T11:34:03;95773.72;;;2.98;65.18
33191;BME280;19554;42.652;23.364;2023-02-14T11:36:30;95780.06;;;2.91;65.61
33191;BME280;19554;42.652;23.364;2023-02-14T11:41:45;95767.00;;;3.02;65.08
33191;BME280;19554;42.652;23.364;2023-02-14T11:44:17;95769.97;;;3.13;64.62
33191;BME280;19554;42.652;23.364;2023-02-14T11:46:50;95758.25;;;3.08;64.37
33191;BME280;19554;42.652;23.364;2023-02-14T11:49:30;95752.47;;;3.25;63.83
33191;BME280;19554;42.652;23.364;2023-02-14T11:51:59;95741.91;;;3.25;63.21
33191;BME280;19554;42.652;23.364;2023-02-14T11:54:34;95752.47;;;3.25;62.76
33191;BME280;19554;42.652;23.364;2023-02-14T11:57:11;95747.38;;;3.23;62.41
33191;BME280;19554;42.652;23.364;2023-02-14T11:59:41;95753.66;;;3.29;62.18
33191;BME280;19554;42.652;23.364;2023-02-14T12:04:49;95734.47;;;3.40;61.84
33191;BME280;19554;42.652;23.364;2023-02-14T12:07:30;95740.56;;;3.41;61.65
33191;BME280;19554;42.652;23.364;2023-02-14T12:17:49;95639.13;;;2.80;61.53
33191;BME280;19554;42.652;23.364;2023-02-14T12:20:25;95711.44;;;3.29;61.93
33191;BME280;19554;42.652;23.364;2023-02-14T12:23:00;95729.97;;;3.47;61.57
33191;BME280;19554;42.652;23.364;2023-02-14T12:25:39;95716.00;;;3.40;61.59
33191;BME280;19554;42.652;23.364;2023-02-14T12:28:21;95729.16;;;3.47;62.19
33191;BME280;19554;42.652;23.364;2023-02-14T12:30:50;95726.63;;;3.59;61.79
33191;BME280;19554;42.652;23.364;2023-02-14T12:33:18;95718.44;;;3.67;61.42
33191;BME280;19554;42.652;23.364;2023-02-14T12:36:07;95716.97;;;3.71;61.74
33191;BME280;19554;42.652;23.364;2023-02-14T12:38:51;95726.81;;;3.82;61.08
33191;BME280;19554;42.652;23.364;2023-02-14T12:41:38;95716.69;;;3.79;60.80
33191;BME280;19554;42.652;23.364;2023-02-14T12:44:32;95710.84;;;3.77;61.32
33191;BME280;19554;42.652;23.364;2023-02-14T12:47:18;95715.19;;;3.65;61.38
33191;BME280;19554;42.652;23.364;2023-02-14T12:50:05;95703.88;;;3.58;61.34
33191;BME280;19554;42.652;23.364;2023-02-14T13:14:34;95711.44;;;4.16;60.52
33191;BME280;19554;42.652;23.364;2023-02-14T13:22:08;95701.47;;;3.99;61.27
33191;BME280;19554;42.652;23.364;2023-02-14T13:24:45;95690.81;;;4.06;61.49
33191;BME280;19554;42.652;23.364;2023-02-14T13:27:21;95693.25;;;4.08;61.15
33191;BME280;19554;42.652;23.364;2023-02-14T13:29:51;95704.34;;;4.16;61.40
33191;BME280;19554;42.652;23.364;2023-02-14T13:32:21;95679.88;;;4.02;61.85
33191;BME280;19554;42.652;23.364;2023-02-14T13:34:48;95702.22;;;4.25;61.49
33191;BME280;19554;42.652;23.364;2023-02-14T13:37:20;95694.66;;;4.28;61.96
33191;BME280;19554;42.652;23.364;2023-02-14T13:39:56;95696.03;;;4.13;61.76
33191;BME280;19554;42.652;23.364;2023-02-14T13:42:49;95694.00;;;4.15;61.71
33191;BME280;19554;42.652;23.364;2023-02-14T13:48:15;95701.47;;;3.99;63.04
33191;BME280;19554;42.652;23.364;2023-02-14T13:51:04;95707.09;;;4.03;62.09
33191;BME280;19554;42.652;23.364;2023-02-14T13:55:59;95698.63;;;4.01;62.74
33191;BME280;19554;42.652;23.364;2023-02-14T13:58:24;95702.66;;;4.03;62.49
33191;BME280;19554;42.652;23.364;2023-02-14T14:00:51;95708.38;;;4.00;62.81
33191;BME280;19554;42.652;23.364;2023-02-14T14:10:55;95711.28;;;3.92;62.58
33191;BME280;19554;42.652;23.364;2023-02-14T14:18:47;95711.09;;;4.12;62.58
33191;BME280;19554;42.652;23.364;2023-02-14T14:21:14;95698.38;;;4.02;62.12
33191;BME280;19554;42.652;23.364;2023-02-14T14:23:41;95702.06;;;3.83;62.63
33191;BME280;19554;42.652;23.364;2023-02-14T14:26:29;95697.19;;;3.80;62.67
33191;BME280;19554;42.652;23.364;2023-02-14T14:28:58;95684.25;;;3.72;62.91
33191;BME280;19554;42.652;23.364;2023-02-14T14:31:23;95707.28;;;3.65;63.27
33191;BME280;19554;42.652;23.364;2023-02-14T14:33:57;95663.25;;;3.59;63.66
33191;BME280;19554;42.652;23.364;2023-02-14T14:36:23;95669.28;;;3.66;63.42
33191;BME280;19554;42.652;23.364;2023-02-14T14:38:52;95678.47;;;3.82;63.38
33191;BME280;19554;42.652;23.364;2023-02-14T14:41:19;95667.63;;;3.71;63.18
33191;BME280;19554;42.652;23.364;2023-02-14T14:43:51;95670.91;;;3.67;63.53
33191;BME280;19554;42.652;23.364;2023-02-14T14:46:17;95600.63;;;3.29;63.60
33191;BME280;19554;42.652;23.364;2023-02-14T14:48:45;95681.34;;;3.80;63.45
33191;BME280;19554;42.652;23.364;2023-02-14T14:51:32;95688.69;;;3.78;63.41
33191;BME280;19554;42.652;23.364;2023-02-14T14:54:06;95668.84;;;3.69;63.59
33191;BME280;19554;42.652;23.364;2023-02-14T14:56:51;95684.44;;;3.77;63.54
33191;BME280;19554;42.652;23.364;2023-02-14T15:01:48;95629.09;;;3.45;63.37
33191;BME280;19554;42.652;23.364;2023-02-14T15:06:49;95691.03;;;3.86;63.18
33191;BME280;19554;42.652;23.364;2023-02-14T15:09:29;95694.38;;;3.75;63.36
33191;BME280;19554;42.652;23.364;2023-02-14T15:11:56;95701.69;;;3.79;63.44
33191;BME280;19554;42.652;23.364;2023-02-14T15:14:43;95698.00;;;3.80;63.41
33191;BME280;19554;42.652;23.364;2023-02-14T15:17:21;95641.41;;;3.51;63.12
33191;BME280;19554;42.652;23.364;2023-02-14T15:19:54;95699.13;;;3.91;63.05
33191;BME280;19554;42.652;23.364;2023-02-14T15:22:26;95689.84;;;3.82;62.94
33191;BME280;19554;42.652;23.364;2023-02-14T15:24:53;95692.22;;;3.90;62.59
33191;BME280;19554;42.652;23.364;2023-02-14T15:27:21;95624.38;;;3.47;62.64